Time;durP1;ratioP1;P1;durP2;ratioP2;P2;SDS_P1;SDS_P2;PMS_P1;PMS_P2;Temp;Humidity;BMP_temperature;BMP_pressure;BME280_temperature;BME280_humidity;BME280_pressure;Samples;Min_cycle;Max_cycle;Signal;HPM_P1;HPM_P2
2022/05/08 00:02:07;;;;;;;10.00;7.60;;;20.60;90.50;;;;;;4995687;28;20450;-69
2022/05/08 00:04:33;;;;;;;8.20;7.40;;;20.50;90.70;;;;;;4995158;28;20856;-68
2022/05/08 00:06:59;;;;;;;8.70;6.80;;;20.50;90.80;;;;;;4980282;28;20421;-68
2022/05/08 00:09:25;;;;;;;7.83;6.90;;;20.50;91.00;;;;;;5013663;28;20460;-69
2022/05/08 00:11:56;;;;;;;9.27;8.00;;;20.50;91.10;;;;;;4995881;28;20492;-69
2022/05/08 00:14:25;;;;;;;8.50;7.60;;;20.50;91.30;;;;;;5013303;28;20664;-68
2022/05/08 00:16:51;;;;;;;8.30;7.40;;;20.50;91.40;;;;;;4995658;28;20430;-69
2022/05/08 00:19:17;;;;;;;8.63;7.73;;;20.50;91.50;;;;;;4995632;28;20993;-69
2022/05/08 00:21:43;;;;;;;8.27;7.40;;;20.40;91.40;;;;;;5013416;28;20406;-68
2022/05/08 00:24:09;;;;;;;8.70;7.87;;;20.40;91.50;;;;;;5013386;28;20863;-68
2022/05/08 00:26:40;;;;;;;9.30;6.87;;;20.40;91.50;;;;;;5013065;28;20974;-68
2022/05/08 00:29:10;;;;;;;13.03;6.57;;;20.40;91.50;;;;;;5012576;28;20514;-68
2022/05/08 00:31:36;;;;;;;8.00;6.33;;;20.40;91.40;;;;;;5013138;28;20445;-69
2022/05/08 00:34:04;;;;;;;7.93;6.60;;;20.30;91.30;;;;;;4995314;28;20437;-68
2022/05/08 00:36:33;;;;;;;6.77;5.97;;;20.40;91.40;;;;;;5012942;28;20459;-69
2022/05/08 00:39:01;;;;;;;6.63;6.03;;;20.30;91.40;;;;;;5012796;28;20464;-69
2022/05/08 00:41:27;;;;;;;6.97;6.10;;;20.30;91.30;;;;;;4995711;28;20428;-69
2022/05/08 00:43:58;;;;;;;5.73;5.10;;;20.30;91.30;;;;;;4995392;28;20437;-68
2022/05/08 00:46:27;;;;;;;7.40;5.50;;;20.20;91.30;;;;;;5012935;28;20439;-69
2022/05/08 00:48:56;;;;;;;6.67;5.63;;;20.30;91.30;;;;;;5013080;28;20456;-68
2022/05/08 00:51:31;;;;;;;6.03;5.13;;;20.20;91.20;;;;;;4994626;28;20452;-69
2022/05/08 00:54:03;;;;;;;6.13;4.40;;;20.20;91.10;;;;;;5012941;28;20908;-68
2022/05/08 00:56:31;;;;;;;5.97;5.10;;;20.20;91.10;;;;;;4995060;28;20461;-69
2022/05/08 00:59:00;;;;;;;4.70;4.20;;;20.20;91.20;;;;;;4995453;28;20445;-68
2022/05/08 01:01:28;;;;;;;5.70;4.40;;;20.20;91.10;;;;;;4995315;28;20524;-68
2022/05/08 01:03:57;;;;;;;9.23;6.00;;;20.20;91.10;;;;;;5012683;28;20495;-68
2022/05/08 01:06:26;;;;;;;5.90;4.90;;;20.20;91.10;;;;;;4993918;28;20241;-68
2022/05/08 01:08:56;;;;;;;4.97;4.00;;;20.10;91.10;;;;;;5010497;28;20819;-69
2022/05/08 01:11:22;;;;;;;4.90;4.43;;;20.10;91.10;;;;;;4994460;28;20463;-69
2022/05/08 01:13:49;;;;;;;4.40;4.00;;;20.10;91.10;;;;;;4991773;28;20418;-68
2022/05/08 01:16:19;;;;;;;4.13;3.40;;;20.10;91.10;;;;;;4996941;28;20434;-69
2022/05/08 01:18:47;;;;;;;4.40;4.00;;;20.10;91.10;;;;;;4995073;28;20474;-69
2022/05/08 01:21:17;;;;;;;4.37;3.97;;;20.00;91.10;;;;;;5011569;28;20406;-68
2022/05/08 01:23:45;;;;;;;5.90;4.23;;;20.00;91.10;;;;;;5005993;28;20856;-68
2022/05/08 01:26:20;;;;;;;5.60;4.00;;;20.00;91.10;;;;;;5010569;28;20401;-68
2022/05/08 01:28:52;;;;;;;5.30;3.97;;;20.00;91.10;;;;;;4975697;28;20826;-68
2022/05/08 01:31:23;;;;;;;6.03;4.00;;;20.00;91.10;;;;;;4975421;28;20490;-68
2022/05/08 01:33:51;;;;;;;4.30;3.43;;;20.00;91.10;;;;;;4975331;28;20397;-68
2022/05/08 01:36:17;;;;;;;4.70;3.40;;;20.00;91.10;;;;;;4969761;28;20853;-69
2022/05/08 01:38:48;;;;;;;4.60;3.70;;;19.90;91.00;;;;;;4995169;28;20473;-69
2022/05/08 01:41:17;;;;;;;4.00;3.20;;;19.90;91.00;;;;;;5016169;28;20437;-69
2022/05/08 01:43:46;;;;;;;3.97;3.33;;;19.90;91.00;;;;;;5016051;28;21028;-69
2022/05/08 01:46:14;;;;;;;4.10;3.67;;;19.90;91.00;;;;;;4989911;28;20484;-69
2022/05/08 01:48:42;;;;;;;4.63;3.43;;;19.90;91.00;;;;;;4979031;28;20449;-69
2022/05/08 01:51:12;;;;;;;4.30;3.53;;;19.90;90.90;;;;;;4979285;28;20465;-68
2022/05/08 01:53:44;;;;;;;6.80;4.20;;;19.80;90.90;;;;;;4979840;28;20407;-69
2022/05/08 01:56:10;;;;;;;5.80;3.80;;;19.80;91.00;;;;;;4997521;28;20480;-69
2022/05/08 01:58:36;;;;;;;6.00;3.40;;;19.80;91.00;;;;;;4979056;28;20432;-69
2022/05/08 02:01:04;;;;;;;2.83;2.63;;;19.80;91.00;;;;;;5011786;28;20260;-68
2022/05/08 02:03:35;;;;;;;3.40;3.10;;;19.80;91.00;;;;;;4969635;28;20456;-69
2022/05/08 02:06:01;;;;;;;3.77;3.20;;;19.70;90.90;;;;;;4979139;28;20413;-68
2022/05/08 02:08:33;;;;;;;3.90;3.27;;;19.70;90.80;;;;;;4979172;28;20438;-68
2022/05/08 02:10:59;;;;;;;4.60;3.70;;;19.70;90.80;;;;;;4978832;28;20457;-69
2022/05/08 02:13:29;;;;;;;5.13;3.40;;;19.70;90.90;;;;;;4991556;28;20445;-68
2022/05/08 02:15:58;;;;;;;4.33;3.50;;;19.70;90.90;;;;;;5015667;28;20460;-68
2022/05/08 02:18:33;;;;;;;3.77;3.37;;;19.70;90.90;;;;;;4981517;28;20456;-68
2022/05/08 02:21:02;;;;;;;4.27;3.30;;;19.70;90.90;;;;;;5014801;28;20450;-69
2022/05/08 02:23:28;;;;;;;3.70;2.90;;;19.60;90.80;;;;;;5015364;28;20459;-69
2022/05/08 02:25:56;;;;;;;4.63;3.90;;;19.60;90.80;;;;;;5015185;28;20825;-69
2022/05/08 02:28:25;;;;;;;4.10;2.90;;;19.60;90.80;;;;;;4981778;28;20205;-69
2022/05/08 02:30:53;;;;;;;5.23;3.63;;;19.60;90.80;;;;;;5015074;28;20462;-69
2022/05/08 02:33:19;;;;;;;4.27;3.47;;;19.60;90.80;;;;;;5015503;28;20405;-68
2022/05/08 02:35:45;;;;;;;4.53;3.43;;;19.60;90.80;;;;;;5015159;28;20428;-68
2022/05/08 02:38:13;;;;;;;4.30;3.13;;;19.60;90.70;;;;;;5014839;28;20445;-68
2022/05/08 02:40:42;;;;;;;4.53;3.53;;;19.50;90.70;;;;;;4996980;28;20457;-69
2022/05/08 02:43:10;;;;;;;5.30;3.70;;;19.50;90.70;;;;;;4997588;28;20910;-69
2022/05/08 02:45:38;;;;;;;4.17;3.20;;;19.50;90.70;;;;;;4981238;28;20440;-68
2022/05/08 02:48:11;;;;;;;4.20;3.50;;;19.50;90.60;;;;;;4981454;28;20680;-68
2022/05/08 02:50:42;;;;;;;5.00;3.40;;;19.50;90.60;;;;;;4991795;28;20777;-68
2022/05/08 02:53:15;;;;;;;6.10;4.17;;;19.40;90.50;;;;;;4978336;28;20418;-68
2022/05/08 02:58:37;;;;;;;5.80;3.40;;;19.40;90.60;;;;;;5014833;28;20466;-69
2022/05/08 03:01:07;;;;;;;4.20;3.90;;;19.40;90.50;;;;;;4972675;28;20460;-69
2022/05/08 03:03:37;;;;;;;3.97;3.57;;;19.40;90.60;;;;;;5000452;28;20425;-69
2022/05/08 03:06:04;;;;;;;6.87;4.60;;;19.30;90.50;;;;;;5014004;28;20972;-68
2022/05/08 03:08:37;;;;;;;7.43;4.83;;;19.30;90.60;;;;;;5014633;28;20902;-69
2022/05/08 03:13:51;;;;;;;4.90;3.80;;;19.30;90.60;;;;;;5014252;28;20500;-69
2022/05/08 03:16:17;;;;;;;4.50;3.53;;;19.30;90.50;;;;;;5014050;28;20440;-69
2022/05/08 03:18:46;;;;;;;4.53;4.13;;;19.30;90.50;;;;;;4997075;28;20459;-68
2022/05/08 03:21:16;;;;;;;5.67;4.37;;;19.30;90.50;;;;;;5013862;28;20451;-68
2022/05/08 03:23:44;;;;;;;5.23;3.73;;;19.20;90.50;;;;;;4980763;28;21001;-69
2022/05/08 03:26:10;;;;;;;6.80;4.57;;;19.20;90.50;;;;;;5013869;28;20470;-69
2022/05/08 03:28:42;;;;;;;6.17;4.77;;;19.20;90.40;;;;;;5014302;28;20475;-69
2022/05/08 03:31:13;;;;;;;5.53;4.70;;;19.20;90.50;;;;;;5012715;28;21040;-69
2022/05/08 03:33:46;;;;;;;6.30;4.53;;;19.20;90.50;;;;;;4996697;28;20426;-68
2022/05/08 03:36:12;;;;;;;5.00;4.50;;;19.20;90.50;;;;;;5019772;28;20431;-69
2022/05/08 03:38:45;;;;;;;6.60;5.47;;;19.20;90.50;;;;;;4996641;28;20973;-69
2022/05/08 03:41:20;;;;;;;8.97;5.50;;;19.10;90.40;;;;;;4996690;28;20201;-69
2022/05/08 03:43:50;;;;;;;5.60;4.80;;;19.10;90.40;;;;;;4994489;28;20419;-69
2022/05/08 03:46:19;;;;;;;5.27;4.77;;;19.10;90.40;;;;;;5006067;28;20475;-68
2022/05/08 03:48:45;;;;;;;6.67;4.63;;;19.10;90.50;;;;;;5014006;28;20461;-69
2022/05/08 03:51:13;;;;;;;5.70;5.10;;;19.10;90.50;;;;;;4996316;28;20826;-69
2022/05/08 03:53:41;;;;;;;6.40;5.80;;;19.10;90.40;;;;;;5013991;28;20173;-69
2022/05/08 03:56:12;;;;;;;6.50;5.87;;;19.10;90.50;;;;;;4996274;28;20776;-69
2022/05/08 03:58:46;;;;;;;7.10;5.90;;;19.00;90.40;;;;;;4980166;28;20458;-68
2022/05/08 04:01:19;;;;;;;6.47;5.83;;;19.00;90.40;;;;;;5013279;28;20452;-68
2022/05/08 04:03:45;;;;;;;6.53;5.93;;;19.00;90.40;;;;;;4995903;28;20505;-68
2022/05/08 04:06:11;;;;;;;6.20;5.70;;;19.00;90.40;;;;;;4996298;28;20409;-68
2022/05/08 04:08:37;;;;;;;7.90;6.43;;;19.00;90.40;;;;;;4995561;28;20448;-68
2022/05/08 04:11:06;;;;;;;7.33;6.53;;;18.90;90.40;;;;;;4995726;28;20256;-68
2022/05/08 04:13:32;;;;;;;8.60;5.90;;;18.90;90.40;;;;;;4979825;28;20768;-68
2022/05/08 04:16:21;;;;;;;7.00;6.30;;;18.90;90.40;;;;;;5013144;28;20577;-68
2022/05/08 04:18:48;;;;;;;7.80;6.13;;;18.90;90.70;;;;;;4994630;28;20808;-69
2022/05/08 04:21:14;;;;;;;7.67;6.80;;;18.90;90.30;;;;;;4982004;28;20817;-68
2022/05/08 04:26:31;;;;;;;7.17;6.47;;;18.80;90.30;;;;;;4995891;28;20404;-68
2022/05/08 04:28:57;;;;;;;8.07;6.70;;;18.80;90.20;;;;;;4994883;28;20537;-69
2022/05/08 04:31:26;;;;;;;9.00;6.40;;;18.80;90.20;;;;;;5013228;28;20444;-68
2022/05/08 04:33:52;;;;;;;8.37;6.83;;;18.80;90.20;;;;;;4991435;28;20441;-68
2022/05/08 04:36:19;;;;;;;8.33;6.63;;;18.80;90.20;;;;;;5013012;28;20963;-68
2022/05/08 04:38:49;;;;;;;7.67;6.90;;;18.70;90.10;;;;;;4995002;28;20279;-68
2022/05/08 04:41:18;;;;;;;11.03;7.10;;;18.70;90.10;;;;;;5012998;28;20408;-69
2022/05/08 04:43:45;;;;;;;7.37;6.53;;;18.70;90.10;;;;;;4995411;28;20463;-69
2022/05/08 04:46:12;;;;;;;7.97;5.97;;;18.70;90.00;;;;;;5013034;28;20408;-69
2022/05/08 04:48:43;;;;;;;9.30;7.20;;;18.70;90.00;;;;;;4994891;28;20459;-68
2022/05/08 04:51:11;;;;;;;7.90;6.60;;;18.70;90.00;;;;;;5012874;28;20727;-68
2022/05/08 04:53:41;;;;;;;7.63;5.93;;;18.70;90.00;;;;;;4995535;28;20397;-68
2022/05/08 04:56:14;;;;;;;8.70;6.17;;;18.70;90.00;;;;;;5002217;28;20572;-68
2022/05/08 04:58:47;;;;;;;8.47;6.30;;;18.60;89.80;;;;;;4988094;28;20432;-68
2022/05/08 05:01:17;;;;;;;9.47;6.63;;;18.60;89.80;;;;;;5012816;28;20411;-68
2022/05/08 05:03:49;;;;;;;10.60;6.60;;;18.60;89.70;;;;;;5012565;28;20470;-69
2022/05/08 05:06:15;;;;;;;7.73;6.40;;;18.60;89.60;;;;;;5012573;28;20428;-68
2022/05/08 05:08:41;;;;;;;9.23;7.07;;;18.60;89.60;;;;;;5012420;28;20531;-69
2022/05/08 05:11:10;;;;;;;7.93;7.13;;;18.60;89.50;;;;;;5012581;28;20451;-68
2022/05/08 05:13:39;;;;;;;11.57;6.80;;;18.60;89.40;;;;;;5013005;28;20439;-68
2022/05/08 05:16:09;;;;;;;9.83;7.50;;;18.50;89.20;;;;;;4995447;28;20397;-68
2022/05/08 05:18:35;;;;;;;9.97;7.43;;;18.50;89.10;;;;;;5012468;28;20833;-69
2022/05/08 05:21:01;;;;;;;9.57;7.37;;;18.50;89.00;;;;;;5012341;28;20462;-69
2022/05/08 05:23:32;;;;;;;9.87;6.90;;;18.50;89.00;;;;;;4994529;28;20433;-68
2022/05/08 05:25:58;;;;;;;8.37;6.90;;;18.40;88.80;;;;;;4995458;28;20416;-68
2022/05/08 05:28:23;;;;;;;8.03;6.30;;;18.40;88.70;;;;;;4992783;28;20463;-68
2022/05/08 05:30:49;;;;;;;9.00;6.97;;;18.40;88.60;;;;;;4995153;28;20161;-68
2022/05/08 05:33:15;;;;;;;9.80;7.10;;;18.40;88.50;;;;;;5012066;28;20446;-68
2022/05/08 05:35:42;;;;;;;9.07;7.40;;;18.40;88.40;;;;;;5011993;28;20531;-68
2022/05/08 05:38:11;;;;;;;8.10;7.30;;;18.40;88.30;;;;;;4994468;28;20463;-68
2022/05/08 05:40:37;;;;;;;8.10;7.30;;;18.40;88.30;;;;;;4962724;28;20426;-68
2022/05/08 05:43:03;;;;;;;9.90;6.30;;;18.30;88.10;;;;;;4994796;28;20427;-68
2022/05/08 05:45:31;;;;;;;10.23;7.50;;;18.30;88.10;;;;;;4995291;28;20208;-68
2022/05/08 05:47:59;;;;;;;10.03;7.63;;;18.30;88.10;;;;;;5006174;28;20474;-68
2022/05/08 05:50:28;;;;;;;7.73;6.07;;;18.30;88.10;;;;;;4978722;28;20412;-69
2022/05/08 05:52:58;;;;;;;9.63;7.20;;;18.30;88.10;;;;;;5011988;28;20489;-69
2022/05/08 05:55:29;;;;;;;8.10;7.00;;;18.30;88.10;;;;;;5012499;28;20413;-68
2022/05/08 05:58:04;;;;;;;8.03;6.97;;;18.30;88.10;;;;;;4982083;28;20470;-69
2022/05/08 06:00:32;;;;;;;11.27;6.97;;;18.30;88.10;;;;;;4975502;28;20928;-68
2022/05/08 06:03:00;;;;;;;9.50;6.97;;;18.30;88.10;;;;;;4993228;28;20528;-69
2022/05/08 06:05:26;;;;;;;11.47;7.30;;;18.30;88.10;;;;;;4991537;28;20499;-68
2022/05/08 06:07:55;;;;;;;9.00;6.20;;;18.20;87.90;;;;;;4976264;28;20482;-69
2022/05/08 06:10:26;;;;;;;8.20;6.93;;;18.20;88.00;;;;;;4994737;28;20432;-69
2022/05/08 06:12:54;;;;;;;11.37;7.27;;;18.20;88.00;;;;;;4994345;28;20976;-68
2022/05/08 06:15:27;;;;;;;9.97;7.43;;;18.20;88.00;;;;;;4995239;28;20411;-69
2022/05/08 06:17:56;;;;;;;8.77;6.53;;;18.20;88.00;;;;;;5015027;28;20952;-68
2022/05/08 06:20:24;;;;;;;9.30;6.40;;;18.20;88.00;;;;;;5011992;28;20439;-68
2022/05/08 06:22:54;;;;;;;11.60;6.37;;;18.20;87.90;;;;;;4994831;28;20435;-68
2022/05/08 06:25:22;;;;;;;9.20;6.83;;;18.10;87.80;;;;;;5012253;28;20542;-68
2022/05/08 06:27:51;;;;;;;12.00;6.10;;;18.20;87.70;;;;;;5015458;28;20404;-68
2022/05/08 06:30:16;;;;;;;11.73;6.37;;;18.20;87.60;;;;;;5014933;28;20996;-68
2022/05/08 06:32:45;;;;;;;8.50;6.30;;;18.10;87.40;;;;;;4997954;28;20197;-69
2022/05/08 06:35:15;;;;;;;9.00;6.00;;;18.10;87.30;;;;;;5014941;28;20944;-68
2022/05/08 06:37:48;;;;;;;8.33;5.67;;;18.10;87.30;;;;;;5015159;28;20419;-68
2022/05/08 06:40:14;;;;;;;8.30;6.20;;;18.10;87.20;;;;;;5014642;28;20436;-69
2022/05/08 06:42:43;;;;;;;11.00;6.43;;;18.10;87.10;;;;;;5014849;28;20794;-68
2022/05/08 06:45:10;;;;;;;10.97;5.63;;;18.10;87.00;;;;;;4982013;28;20487;-69
2022/05/08 06:47:36;;;;;;;8.77;5.33;;;18.10;87.00;;;;;;4997456;28;20459;-68
2022/05/08 06:50:05;;;;;;;10.20;6.77;;;18.00;86.90;;;;;;4993349;28;20452;-68
2022/05/08 06:52:31;;;;;;;9.70;5.87;;;18.10;86.90;;;;;;4997951;28;20887;-68
2022/05/08 06:55:04;;;;;;;10.43;5.93;;;18.00;86.80;;;;;;4981615;28;20447;-68
2022/05/08 06:57:30;;;;;;;9.77;5.53;;;18.00;86.70;;;;;;4997384;28;20449;-68
2022/05/08 07:02:47;;;;;;;9.53;5.60;;;18.00;86.60;;;;;;5014988;28;20445;-69
2022/05/08 07:05:15;;;;;;;10.33;5.50;;;18.00;86.40;;;;;;4997370;28;20439;-68
2022/05/08 07:07:43;;;;;;;10.27;5.10;;;18.00;86.30;;;;;;4997260;28;20471;-69
2022/05/08 07:10:12;;;;;;;12.00;5.80;;;18.00;86.30;;;;;;5010050;28;20526;-68
2022/05/08 07:12:40;;;;;;;9.70;6.00;;;18.00;86.20;;;;;;4988815;28;20483;-68
2022/05/08 07:15:09;;;;;;;11.50;5.90;;;18.00;86.20;;;;;;4982574;28;20957;-68
2022/05/08 07:17:35;;;;;;;15.23;6.00;;;18.00;86.10;;;;;;4997175;28;20511;-68
2022/05/08 07:20:09;;;;;;;13.37;6.10;;;18.00;86.10;;;;;;5009403;28;20531;-68
2022/05/08 07:22:40;;;;;;;9.67;5.30;;;18.00;86.10;;;;;;5012746;28;20442;-68
2022/05/08 07:25:06;;;;;;;9.37;5.03;;;18.00;86.30;;;;;;5009695;28;20526;-68
2022/05/08 07:27:36;;;;;;;8.53;5.30;;;18.00;86.30;;;;;;5011809;28;21039;-69
2022/05/08 07:30:06;;;;;;;10.43;5.50;;;18.00;86.20;;;;;;5013011;28;20529;-73
2022/05/08 07:32:35;;;;;;;13.80;6.40;;;17.90;86.20;;;;;;5013591;28;20463;-68
2022/05/08 07:37:49;;;;;;;7.70;4.83;;;17.90;86.20;;;;;;5012015;28;20482;-69
2022/05/08 07:40:15;;;;;;;7.73;4.73;;;17.90;86.20;;;;;;5012977;28;20661;-68
2022/05/08 07:42:42;;;;;;;10.17;5.00;;;17.90;86.30;;;;;;5012808;28;20441;-69
2022/05/08 07:45:08;;;;;;;8.53;5.23;;;17.90;86.20;;;;;;5012985;28;20425;-69
2022/05/08 07:47:35;;;;;;;11.93;4.90;;;17.90;86.10;;;;;;5010780;28;20447;-69
2022/05/08 07:50:00;;;;;;;9.23;4.57;;;17.90;86.00;;;;;;4996054;28;20778;-69
2022/05/08 07:52:36;;;;;;;8.30;4.60;;;17.90;85.90;;;;;;5012129;28;20992;-69
2022/05/08 07:55:03;;;;;;;12.40;4.87;;;17.90;85.70;;;;;;4995898;28;20799;-68
2022/05/08 07:57:29;;;;;;;13.43;4.80;;;17.90;85.70;;;;;;4994954;28;20440;-68
2022/05/08 07:59:54;;;;;;;7.80;4.73;;;17.90;85.60;;;;;;5013279;28;20446;-69
2022/05/08 08:02:22;;;;;;;10.57;4.80;;;17.90;85.40;;;;;;5011613;28;20669;-68
2022/05/08 08:04:48;;;;;;;8.80;4.03;;;17.90;85.20;;;;;;5012689;28;20511;-69
2022/05/08 08:07:15;;;;;;;8.23;4.60;;;17.90;85.10;;;;;;4994688;28;20672;-69
2022/05/08 08:09:45;;;;;;;5.90;4.30;;;17.90;85.10;;;;;;4996536;28;21066;-69
2022/05/08 08:12:13;;;;;;;10.03;4.70;;;17.90;85.00;;;;;;4979027;28;20552;-69
2022/05/08 08:14:47;;;;;;;9.63;4.10;;;17.90;84.90;;;;;;4994826;28;20528;-69
2022/05/08 08:17:18;;;;;;;6.80;4.20;;;17.90;84.90;;;;;;4994794;28;20467;-69
2022/05/08 08:19:47;;;;;;;9.97;4.53;;;17.90;84.60;;;;;;5011906;28;20913;-69
2022/05/08 08:22:16;;;;;;;9.63;5.20;;;17.90;84.60;;;;;;4994749;28;20554;-69
2022/05/08 08:24:46;;;;;;;8.50;3.73;;;17.90;84.40;;;;;;4978943;28;20944;-69
2022/05/08 08:27:13;;;;;;;6.90;4.03;;;17.90;84.30;;;;;;4994453;28;20907;-69
2022/05/08 08:29:39;;;;;;;7.73;4.57;;;17.90;84.20;;;;;;5011584;28;20454;-69
2022/05/08 08:32:07;;;;;;;9.33;4.53;;;17.90;84.20;;;;;;5011192;28;20491;-69
2022/05/08 08:34:33;;;;;;;6.40;3.50;;;17.90;84.10;;;;;;4994530;28;20917;-69
2022/05/08 08:37:02;;;;;;;11.90;3.90;;;17.90;84.10;;;;;;5010272;28;20839;-69
2022/05/08 08:39:30;;;;;;;7.97;3.83;;;17.90;84.00;;;;;;4993079;28;20971;-69
2022/05/08 08:42:28;;;;;;;9.70;4.20;;;17.90;84.00;;;;;;4994885;28;20950;-69
2022/05/08 08:47:55;;;;;;;8.67;3.50;;;18.00;83.90;;;;;;5011557;28;20996;-69
2022/05/08 08:50:27;;;;;;;10.27;3.90;;;18.00;83.80;;;;;;4994168;28;20426;-69
2022/05/08 08:53:01;;;;;;;7.07;3.33;;;18.00;83.70;;;;;;4992609;28;20456;-69
2022/05/08 08:55:27;;;;;;;6.67;3.47;;;18.00;83.50;;;;;;5011910;28;20583;-69
2022/05/08 08:57:55;;;;;;;7.93;3.40;;;18.00;83.20;;;;;;4993766;28;20521;-69
2022/05/08 09:00:24;;;;;;;6.83;3.07;;;18.00;83.10;;;;;;4994641;28;20412;-69
2022/05/08 09:02:52;;;;;;;10.47;4.03;;;18.00;83.00;;;;;;4994094;28;20436;-69
2022/05/08 09:05:20;;;;;;;10.87;4.27;;;18.00;82.70;;;;;;4994474;28;20424;-69
2022/05/08 09:07:53;;;;;;;10.23;3.73;;;18.00;82.60;;;;;;5010019;28;20478;-69
2022/05/08 09:10:27;;;;;;;6.57;4.10;;;18.00;82.50;;;;;;4991204;28;20424;-69
2022/05/08 09:12:58;;;;;;;7.83;3.60;;;18.10;82.50;;;;;;5006351;28;20486;-70
2022/05/08 09:15:29;;;;;;;4.87;2.70;;;18.00;82.30;;;;;;4993102;28;20434;-69
2022/05/08 09:18:02;;;;;;;7.87;3.70;;;18.10;82.50;;;;;;4996757;28;20448;-69
2022/05/08 09:20:48;;;;;;;8.17;3.87;;;18.10;82.50;;;;;;4977720;28;20430;-69
2022/05/08 09:23:19;;;;;;;7.53;3.33;;;18.10;82.40;;;;;;4994165;28;20412;-69
2022/05/08 09:25:46;;;;;;;6.57;3.00;;;18.10;82.30;;;;;;4993623;28;20436;-69
2022/05/08 09:28:16;;;;;;;8.13;3.27;;;18.10;82.30;;;;;;4994034;28;20937;-67
2022/05/08 09:30:58;;;;;;;9.17;3.20;;;18.10;82.30;;;;;;4994273;28;20424;-69
2022/05/08 09:33:31;;;;;;;4.97;2.90;;;18.10;82.30;;;;;;5010594;28;20406;-69
2022/05/08 09:35:59;;;;;;;7.80;3.60;;;18.10;82.20;;;;;;4992049;28;20412;-69
2022/05/08 09:38:42;;;;;;;7.33;3.30;;;18.10;82.20;;;;;;4975789;28;20522;-69
2022/05/08 09:41:09;;;;;;;5.20;3.00;;;18.20;82.10;;;;;;4993203;28;20511;-69
2022/05/08 09:43:40;;;;;;;8.40;2.93;;;18.20;81.90;;;;;;4993754;28;20486;-69
2022/05/08 09:46:07;;;;;;;7.90;3.30;;;18.20;81.80;;;;;;4994372;28;20955;-69
2022/05/08 09:48:36;;;;;;;7.43;2.67;;;18.20;81.40;;;;;;5010899;28;20545;-69
2022/05/08 09:51:05;;;;;;;9.73;3.30;;;18.20;81.30;;;;;;5011222;28;20473;-69
2022/05/08 09:53:36;;;;;;;5.70;2.83;;;18.30;81.30;;;;;;5010532;28;20450;-70
2022/05/08 09:56:10;;;;;;;6.43;2.70;;;18.30;81.30;;;;;;4976673;28;20497;-68
2022/05/08 09:58:43;;;;;;;5.60;2.40;;;18.30;80.90;;;;;;5003633;28;20477;-69
2022/05/08 10:01:09;;;;;;;5.43;2.77;;;18.30;80.70;;;;;;5011797;28;20883;-69
2022/05/08 10:03:39;;;;;;;5.97;2.33;;;18.30;80.20;;;;;;4997694;28;20438;-69
2022/05/08 10:06:05;;;;;;;8.03;2.70;;;18.30;80.00;;;;;;4997170;28;20411;-69
2022/05/08 10:08:42;;;;;;;9.27;3.27;;;18.30;80.10;;;;;;5014258;28;20474;-69
2022/05/08 10:14:05;;;;;;;5.87;2.80;;;18.30;79.90;;;;;;5012504;28;20417;-69
2022/05/08 10:17:12;;;;;;;4.07;2.00;;;18.40;79.70;;;;;;4988983;28;20435;-69
2022/05/08 10:19:43;;;;;;;6.20;3.07;;;18.40;79.70;;;;;;4996043;28;20456;-71
2022/05/08 10:22:15;;;;;;;5.10;2.43;;;18.40;79.40;;;;;;4996562;28;20458;-71
2022/05/08 10:24:54;;;;;;;3.23;2.33;;;18.40;79.20;;;;;;4978226;28;20444;-71
2022/05/08 10:27:29;;;;;;;6.63;2.90;;;18.40;79.10;;;;;;5010283;28;20462;-72
2022/05/08 10:29:55;;;;;;;8.93;2.53;;;18.40;79.10;;;;;;4997356;28;20440;-72
2022/05/08 10:35:22;;;;;;;4.70;2.00;;;18.50;79.00;;;;;;5014944;28;20800;-71
2022/05/08 10:37:52;;;;;;;2.60;1.87;;;18.50;78.70;;;;;;4996117;28;20474;-76
2022/05/08 10:40:24;;;;;;;6.03;2.63;;;18.50;78.90;;;;;;5000807;28;20465;-78
2022/05/08 10:42:58;;;;;;;6.93;2.30;;;18.60;79.30;;;;;;4989420;28;20443;-73
2022/05/08 10:45:33;;;;;;;6.47;2.30;;;18.60;79.40;;;;;;4997597;28;20419;-67
2022/05/08 10:48:18;;;;;;;7.60;3.10;;;18.60;79.40;;;;;;5014209;28;20456;-67
2022/05/08 10:50:52;;;;;;;3.17;1.90;;;18.60;79.30;;;;;;4996023;28;20458;-66
2022/05/08 10:53:26;;;;;;;7.67;2.50;;;18.60;79.00;;;;;;4969757;28;21555;-66
2022/05/08 10:56:00;;;;;;;6.63;2.37;;;18.70;78.60;;;;;;5014291;28;20816;-67
2022/05/08 10:58:28;;;;;;;4.83;2.23;;;18.70;77.90;;;;;;5020676;28;20866;-67
2022/05/08 11:01:00;;;;;;;3.87;3.13;;;18.70;78.10;;;;;;4984583;28;20420;-67
2022/05/08 11:03:28;;;;;;;7.20;2.40;;;18.70;78.20;;;;;;5026198;28;21006;-67
2022/05/08 11:05:59;;;;;;;5.37;2.57;;;18.70;78.10;;;;;;5001538;28;20797;-67
2022/05/08 11:08:31;;;;;;;4.10;2.00;;;18.80;77.60;;;;;;4995715;28;20502;-66
2022/05/08 11:11:08;;;;;;;5.87;2.60;;;18.80;77.60;;;;;;5013147;28;20487;-67
2022/05/08 11:13:52;;;;;;;3.27;2.00;;;18.90;78.00;;;;;;4995428;28;20544;-67
2022/05/08 11:16:41;;;;;;;4.00;2.30;;;18.90;78.00;;;;;;4979188;28;20420;-66
2022/05/08 11:19:07;;;;;;;3.97;2.10;;;18.90;77.90;;;;;;5010503;28;20460;-66
2022/05/08 11:21:38;;;;;;;5.43;2.40;;;18.90;78.00;;;;;;5010018;28;22031;-65
2022/05/08 11:24:05;;;;;;;6.80;2.10;;;19.00;78.20;;;;;;5004212;28;20460;-66
2022/05/08 11:26:37;;;;;;;3.93;1.70;;;19.00;78.20;;;;;;5001532;28;20500;-67
2022/05/08 11:29:04;;;;;;;9.17;2.37;;;19.00;78.10;;;;;;5013551;28;20450;-66
2022/05/08 11:31:34;;;;;;;4.67;1.63;;;19.10;78.00;;;;;;5012348;28;20471;-66
2022/05/08 11:36:54;;;;;;;5.13;2.00;;;19.10;77.90;;;;;;5013022;28;20464;-66
2022/05/08 11:39:21;;;;;;;4.47;2.10;;;19.20;77.90;;;;;;5012546;28;20463;-66
2022/05/08 11:41:50;;;;;;;5.87;2.07;;;19.20;78.00;;;;;;5011014;28;20463;-66
2022/05/08 11:44:16;;;;;;;5.60;1.80;;;19.20;78.70;;;;;;5012754;28;20459;-67
2022/05/08 11:46:50;;;;;;;3.37;1.70;;;19.30;78.00;;;;;;5006855;28;20449;-67
2022/05/08 11:49:30;;;;;;;3.07;1.57;;;19.30;77.90;;;;;;5007461;28;20499;-67
2022/05/08 11:52:01;;;;;;;5.00;2.30;;;19.30;77.90;;;;;;5012915;28;20444;-67
2022/05/08 11:54:35;;;;;;;4.63;1.90;;;19.40;77.90;;;;;;4995530;28;20435;-67
2022/05/08 11:57:21;;;;;;;5.10;2.20;;;19.40;78.00;;;;;;5021315;28;20948;-67
2022/05/08 12:00:01;;;;;;;5.07;2.13;;;19.40;77.80;;;;;;4995497;28;20457;-67
2022/05/08 12:02:50;;;;;;;5.10;2.50;;;19.50;77.80;;;;;;5013019;28;20431;-67
2022/05/08 12:05:24;;;;;;;5.43;2.87;;;19.50;77.70;;;;;;5011210;28;20539;-67
2022/05/08 12:07:51;;;;;;;5.20;2.30;;;19.50;77.60;;;;;;5012927;28;20965;-67
2022/05/08 12:10:34;;;;;;;4.10;2.70;;;19.60;77.80;;;;;;4993632;28;20447;-66
2022/05/08 12:13:06;;;;;;;7.90;2.37;;;19.60;77.70;;;;;;4995118;28;20456;-67
2022/05/08 12:15:32;;;;;;;6.60;2.27;;;19.70;77.90;;;;;;5008139;28;20444;-67
2022/05/08 12:18:02;;;;;;;4.03;1.87;;;19.70;77.90;;;;;;5009637;28;20464;-66
2022/05/08 12:20:41;;;;;;;9.03;2.50;;;19.70;77.80;;;;;;5009068;28;21068;-67
2022/05/08 12:23:11;;;;;;;4.97;2.20;;;19.70;77.80;;;;;;4994702;28;20956;-67
2022/05/08 12:25:41;;;;;;;5.80;2.20;;;19.80;77.90;;;;;;4993998;28;20994;-67
2022/05/08 12:28:10;;;;;;;5.87;2.33;;;19.80;77.90;;;;;;5012080;28;20467;-66
2022/05/08 12:30:36;;;;;;;5.87;2.50;;;19.90;78.00;;;;;;5006236;28;20429;-67
2022/05/08 12:33:02;;;;;;;4.30;2.33;;;19.90;77.80;;;;;;4969492;28;20794;-69
2022/05/08 12:35:31;;;;;;;4.27;2.07;;;19.90;77.80;;;;;;4994386;28;20962;-67
2022/05/08 12:37:58;;;;;;;4.33;2.43;;;20.00;77.60;;;;;;4988769;28;20552;-68
2022/05/08 12:40:27;;;;;;;8.50;3.73;;;20.00;77.70;;;;;;5011860;28;20584;-67
2022/05/08 12:42:53;;;;;;;8.10;2.23;;;20.00;77.60;;;;;;4976842;28;20982;-68
2022/05/08 12:45:20;;;;;;;3.80;2.27;;;20.00;77.80;;;;;;4994828;28;20410;-68
2022/05/08 12:47:48;;;;;;;4.70;2.17;;;20.10;77.60;;;;;;5002229;28;20658;-68
2022/05/08 12:50:19;;;;;;;3.20;1.70;;;20.10;77.60;;;;;;4992815;28;20464;-68
2022/05/08 12:52:47;;;;;;;4.40;2.03;;;20.10;77.60;;;;;;5012238;28;20473;-68
2022/05/08 12:55:13;;;;;;;4.83;2.30;;;20.20;77.70;;;;;;5011880;28;20774;-68
2022/05/08 13:00:26;;;;;;;5.60;1.80;;;20.20;77.50;;;;;;5004340;28;20520;-71
2022/05/08 13:02:52;;;;;;;6.03;2.23;;;20.30;77.50;;;;;;4983319;28;20938;-68
2022/05/08 13:05:20;;;;;;;5.80;2.37;;;20.30;77.40;;;;;;4992063;28;20438;-68
2022/05/08 13:07:46;;;;;;;4.17;2.00;;;20.30;77.40;;;;;;4990544;28;20438;-68
2022/05/08 13:10:14;;;;;;;4.33;2.33;;;20.40;77.50;;;;;;4993708;28;20457;-68
2022/05/08 13:12:43;;;;;;;6.07;2.30;;;20.40;77.40;;;;;;4993931;28;20463;-68
2022/05/08 13:15:11;;;;;;;4.93;2.50;;;20.40;77.30;;;;;;4992687;28;20851;-68
2022/05/08 13:17:37;;;;;;;4.57;2.33;;;20.50;77.40;;;;;;4960495;28;20553;-68
2022/05/08 13:20:04;;;;;;;5.20;2.13;;;20.50;77.30;;;;;;5009038;28;20528;-68
2022/05/08 13:22:30;;;;;;;4.47;2.17;;;20.50;77.30;;;;;;5001794;28;20432;-68
2022/05/08 13:24:56;;;;;;;4.73;2.53;;;20.50;77.10;;;;;;5009203;28;20513;-68
2022/05/08 13:27:24;;;;;;;5.50;2.37;;;20.60;77.20;;;;;;4994340;28;20429;-68